Cole Camp, Missouri
Current Conditions -  °F | °C
As of 3:53 AM on Sunday 26 Oct 2014 (Local Time) from KDMO Reporting Station
Clear Clear  
Wind Chill: 59°   Ceiling: Unl
Heat Index: 59°   Visibility: 9mi
Dew Point: 51°   Wind: 5mph
Humidity: 75%   Direction: 90°E
Pressure: 30"   Gusts: NA
Location:  38.46°N, 93.2°W
Report Text: KDMO 260853Z AUTO 09004KT 9SM CLR 15/11 A3000 RMK AO2 SLP153 T01500106 58005
Loading
Personal Weather Stations






























Interactive Weather Map
Tropical Storm Tracking
New forecast layout! Learn more

10-Day Weather Forecast

Advertisements
Track Severe Weather on mobile